Time;durP1;ratioP1;P1;durP2;ratioP2;P2;SDS_P1;SDS_P2;PMS_P1;PMS_P2;Temp;Humidity;BMP_temperature;BMP_pressure;BME280_temperature;BME280_humidity;BME280_pressure;Samples;Min_cycle;Max_cycle;Signal;HPM_P1;HPM_P2
2023/01/12 00:02:19;;;;;;;2.60;1.00;;;8.30;99.90;;;;;;4976639;28;20046;-79
2023/01/12 00:04:44;;;;;;;3.95;0.60;;;8.20;99.90;;;;;;4973865;28;20031;-80
2023/01/12 00:07:13;;;;;;;10.35;1.52;;;8.30;99.90;;;;;;4992029;28;20046;-80
2023/01/12 00:09:39;;;;;;;12.25;1.65;;;8.30;99.90;;;;;;4989727;28;20050;-80
2023/01/12 00:12:08;;;;;;;4.50;1.95;;;8.30;99.90;;;;;;4976449;28;20053;-79
2023/01/12 00:14:36;;;;;;;1.17;0.45;;;8.30;99.90;;;;;;4973635;28;20035;-79
2023/01/12 00:17:02;;;;;;;1.60;0.75;;;8.40;99.90;;;;;;4991569;28;20046;-79
2023/01/12 00:19:28;;;;;;;6.82;0.75;;;8.40;99.90;;;;;;4992868;28;20038;-80
2023/01/12 00:22:11;;;;;;;2.22;0.82;;;8.40;99.90;;;;;;4992866;28;20036;-79
2023/01/12 00:24:44;;;;;;;3.88;0.88;;;8.50;99.90;;;;;;4994306;28;20081;-79
2023/01/12 00:27:14;;;;;;;4.88;0.73;;;8.40;99.90;;;;;;4976334;28;20407;-80
2023/01/12 00:29:40;;;;;;;9.65;0.50;;;8.40;99.90;;;;;;4975957;28;20031;-80
2023/01/12 00:32:10;;;;;;;0.88;0.75;;;8.40;99.90;;;;;;4991961;28;20086;-80
2023/01/12 00:34:35;;;;;;;6.00;0.73;;;8.40;99.90;;;;;;4993661;28;20077;-80
2023/01/12 00:37:02;;;;;;;8.40;0.85;;;8.40;99.90;;;;;;4993266;28;20038;-79
2023/01/12 00:39:28;;;;;;;5.28;0.93;;;8.40;99.90;;;;;;4976426;28;20134;-80
2023/01/12 00:47:23;;;;;;;3.45;0.55;;;8.40;99.90;;;;;;4976370;28;20022;-79
2023/01/12 00:49:49;;;;;;;2.55;0.82;;;8.40;99.90;;;;;;4976130;28;20139;-80
2023/01/12 00:52:18;;;;;;;2.63;1.02;;;8.40;99.90;;;;;;4992942;28;20042;-80
2023/01/12 00:54:44;;;;;;;12.63;1.10;;;8.40;99.90;;;;;;4976378;28;20045;-80
2023/01/12 00:57:13;;;;;;;4.88;0.40;;;8.50;99.90;;;;;;4993194;28;20054;-80
2023/01/12 00:59:39;;;;;;;4.70;1.35;;;8.40;99.90;;;;;;4976442;28;20034;-81
2023/01/12 01:02:05;;;;;;;1.20;0.32;;;8.40;99.90;;;;;;4992298;28;20030;-80
2023/01/12 01:04:33;;;;;;;1.20;0.60;;;8.40;99.90;;;;;;4973278;28;20034;-81
2023/01/12 01:07:00;;;;;;;2.85;1.25;;;8.40;99.90;;;;;;4989363;28;20030;-82
2023/01/12 01:09:26;;;;;;;10.02;1.73;;;8.50;99.90;;;;;;4993580;28;20045;-80
2023/01/12 01:11:52;;;;;;;1.05;0.63;;;8.40;99.90;;;;;;4993063;28;20067;-80
2023/01/12 01:14:18;;;;;;;1.17;0.50;;;8.50;99.90;;;;;;4992680;28;20470;-80
2023/01/12 01:16:43;;;;;;;2.25;0.52;;;8.50;99.90;;;;;;4992764;28;20105;-80
2023/01/12 01:19:09;;;;;;;5.75;1.60;;;8.50;99.90;;;;;;4992626;28;20026;-81
2023/01/12 01:21:35;;;;;;;4.65;0.85;;;8.60;99.90;;;;;;4994846;28;20038;-81
2023/01/12 01:24:01;;;;;;;7.50;0.88;;;8.50;99.90;;;;;;4991274;28;20443;-82
2023/01/12 01:26:29;;;;;;;8.05;1.48;;;8.50;99.90;;;;;;4992620;28;20038;-81
2023/01/12 01:28:56;;;;;;;1.95;0.73;;;8.60;99.90;;;;;;4992400;28;20113;-82
2023/01/12 01:31:23;;;;;;;1.25;0.63;;;8.50;99.90;;;;;;5003483;23;20134;-78
2023/01/12 01:33:50;;;;;;;5.47;0.80;;;8.60;99.90;;;;;;5007872;28;20488;-78
2023/01/12 01:36:16;;;;;;;2.08;0.43;;;8.60;99.90;;;;;;4996137;28;20029;-80
2023/01/12 01:38:44;;;;;;;9.98;1.88;;;8.60;99.90;;;;;;5010841;28;20161;-77
2023/01/12 01:41:22;;;;;;;6.63;0.82;;;8.60;99.90;;;;;;5006046;28;20047;-77
2023/01/12 01:43:56;;;;;;;6.40;1.58;;;8.70;99.90;;;;;;4991480;28;20035;-77
2023/01/12 01:46:52;;;;;;;1.63;0.50;;;8.70;99.90;;;;;;4976951;28;20053;-77
2023/01/12 01:49:51;;;;;;;10.38;1.05;;;8.70;99.90;;;;;;4983865;28;20026;-77
2023/01/12 01:52:24;;;;;;;7.88;0.90;;;8.70;99.90;;;;;;5005330;28;20563;-77
2023/01/12 01:55:10;;;;;;;4.65;0.75;;;8.70;99.90;;;;;;5006650;28;20241;-77
2023/01/12 01:57:47;;;;;;;2.55;0.95;;;8.70;99.90;;;;;;5006512;28;20093;-77
2023/01/12 02:00:14;;;;;;;7.53;0.95;;;8.60;99.90;;;;;;5006635;28;20031;-77
2023/01/12 02:02:42;;;;;;;0.38;0.30;;;8.60;99.90;;;;;;4991281;28;20065;-77
2023/01/12 02:05:10;;;;;;;4.22;0.45;;;8.70;99.90;;;;;;4988226;28;20101;-77
2023/01/12 02:07:37;;;;;;;1.40;1.17;;;8.70;99.90;;;;;;4979876;28;20027;-77
2023/01/12 02:10:03;;;;;;;7.38;1.02;;;8.70;99.90;;;;;;5005121;28;20035;-77
2023/01/12 02:18:26;;;;;;;13.70;1.45;;;8.70;99.90;;;;;;4990855;28;20498;-77
2023/01/12 02:21:47;;;;;;;0.80;0.47;;;8.70;99.90;;;;;;5005669;28;20109;-77
2023/01/12 02:24:58;;;;;;;1.27;0.52;;;8.80;99.90;;;;;;4987465;28;20038;-77
2023/01/12 02:27:55;;;;;;;5.22;0.70;;;8.70;99.90;;;;;;5002705;28;20044;-77
2023/01/12 02:30:56;;;;;;;9.88;2.08;;;8.70;99.90;;;;;;4984624;28;20030;-77
2023/01/12 02:33:54;;;;;;;9.30;0.55;;;8.70;99.90;;;;;;4997251;28;20053;-77
2023/01/12 02:36:36;;;;;;;4.80;0.70;;;8.80;99.90;;;;;;4976122;28;20030;-77
2023/01/12 02:39:43;;;;;;;4.00;1.67;;;8.80;99.90;;;;;;4990235;28;20579;-77
2023/01/12 02:42:42;;;;;;;11.80;0.93;;;8.80;99.90;;;;;;4989963;28;20438;-78
2023/01/12 02:45:23;;;;;;;7.57;1.13;;;8.80;99.90;;;;;;5004509;28;20449;-78
2023/01/12 02:48:13;;;;;;;2.47;0.65;;;8.70;99.90;;;;;;5004716;28;20033;-78
2023/01/12 02:51:16;;;;;;;0.60;0.28;;;8.70;99.90;;;;;;4986550;28;20502;-77
2023/01/12 02:53:50;;;;;;;6.28;1.05;;;8.70;99.90;;;;;;4986540;28;20050;-78
2023/01/12 02:56:49;;;;;;;1.85;1.13;;;8.70;99.90;;;;;;4975279;28;20046;-78
2023/01/12 02:59:26;;;;;;;5.50;1.48;;;8.70;99.90;;;;;;4990246;28;20086;-78
2023/01/12 03:01:58;;;;;;;2.45;0.68;;;8.80;99.90;;;;;;4986259;28;20410;-78
2023/01/12 03:04:26;;;;;;;0.95;0.45;;;8.80;99.90;;;;;;5006002;28;20505;-78
2023/01/12 03:06:55;;;;;;;12.13;0.88;;;8.70;99.90;;;;;;4990603;28;20379;-78
2023/01/12 03:09:44;;;;;;;3.50;1.70;;;8.70;99.90;;;;;;4991739;28;20030;-78
2023/01/12 03:12:17;;;;;;;6.82;1.00;;;8.70;99.90;;;;;;4990310;28;20185;-77
2023/01/12 03:14:47;;;;;;;3.03;0.70;;;8.70;99.90;;;;;;5005793;28;20030;-77
2023/01/12 03:17:26;;;;;;;1.15;0.68;;;8.70;99.90;;;;;;5004747;28;20046;-77
2023/01/12 03:19:55;;;;;;;11.70;1.25;;;8.70;99.90;;;;;;5005709;28;20109;-77
2023/01/12 03:22:21;;;;;;;3.38;0.60;;;8.70;99.90;;;;;;5005175;28;20109;-77
2023/01/12 03:25:01;;;;;;;1.13;0.38;;;8.70;99.90;;;;;;5006067;28;20045;-77
2023/01/12 03:27:39;;;;;;;3.88;1.10;;;8.80;99.90;;;;;;4990099;28;20475;-77
2023/01/12 03:30:25;;;;;;;2.45;0.85;;;8.70;99.90;;;;;;5005503;28;20041;-77
2023/01/12 03:32:51;;;;;;;6.15;1.25;;;8.70;99.90;;;;;;4990060;28;20050;-77
2023/01/12 03:35:23;;;;;;;6.38;0.82;;;8.70;99.90;;;;;;4990948;28;20031;-77
2023/01/12 03:38:15;;;;;;;2.97;0.57;;;8.80;99.90;;;;;;5004522;28;20038;-78
2023/01/12 03:40:48;;;;;;;2.65;1.08;;;8.80;99.90;;;;;;5000575;28;20718;-78
2023/01/12 03:43:27;;;;;;;9.68;1.48;;;8.80;99.90;;;;;;5005173;28;20133;-78
2023/01/12 03:46:01;;;;;;;3.20;1.13;;;8.80;99.90;;;;;;5004466;28;20031;-79
2023/01/12 03:48:51;;;;;;;0.80;0.57;;;8.80;99.90;;;;;;4998715;28;20042;-79
2023/01/12 03:51:35;;;;;;;12.77;0.70;;;8.90;99.90;;;;;;4988652;28;20459;-78
2023/01/12 03:54:02;;;;;;;5.18;0.68;;;8.90;99.90;;;;;;4989782;28;20030;-78
2023/01/12 03:56:31;;;;;;;8.18;1.30;;;9.00;99.90;;;;;;5002050;28;20584;-78
2023/01/12 03:58:57;;;;;;;1.25;0.60;;;8.90;99.90;;;;;;5005266;28;20034;-78
2023/01/12 04:01:22;;;;;;;1.90;0.55;;;8.90;99.90;;;;;;5002172;28;20053;-78
2023/01/12 04:03:48;;;;;;;6.22;0.85;;;8.90;99.90;;;;;;4997887;28;20031;-78
2023/01/12 04:06:14;;;;;;;7.85;0.82;;;8.90;99.90;;;;;;4993242;28;20050;-77
2023/01/12 04:08:40;;;;;;;1.15;0.22;;;8.90;99.90;;;;;;5008691;28;20037;-77
2023/01/12 04:13:51;;;;;;;4.15;0.52;;;8.90;99.90;;;;;;4993836;28;20045;-77
2023/01/12 04:16:18;;;;;;;1.83;0.47;;;8.90;99.90;;;;;;4993263;28;20487;-78
2023/01/12 04:18:43;;;;;;;5.75;1.10;;;9.00;99.90;;;;;;4989564;28;20497;-78
2023/01/12 04:22:41;;;;;;;4.78;0.85;;;9.00;99.90;;;;;;4992387;28;20026;-77
2023/01/12 04:23:55;;;;;;;8.27;1.15;;;8.90;99.90;;;;;;4992551;28;20034;-78
2023/01/12 04:26:21;;;;;;;10.52;0.80;;;8.90;99.90;;;;;;4992947;28;20034;-78
2023/01/12 04:28:47;;;;;;;7.28;0.52;;;8.90;99.90;;;;;;4993465;28;20030;-78
2023/01/12 04:31:13;;;;;;;0.88;0.40;;;9.00;99.90;;;;;;4993256;28;20454;-78
2023/01/12 04:33:39;;;;;;;5.85;0.90;;;8.90;99.90;;;;;;4993617;28;20034;-78
2023/01/12 04:36:05;;;;;;;7.13;0.88;;;9.00;99.90;;;;;;5008313;28;20030;-78
2023/01/12 04:38:30;;;;;;;3.10;0.75;;;9.00;99.90;;;;;;4990199;28;20469;-78
2023/01/12 04:40:56;;;;;;;4.05;1.00;;;9.00;99.90;;;;;;5005210;28;20033;-78
2023/01/12 04:43:22;;;;;;;4.22;1.10;;;9.00;99.90;;;;;;4993397;28;20061;-78
2023/01/12 04:45:47;;;;;;;2.53;1.17;;;9.00;99.90;;;;;;4991804;28;20041;-78
2023/01/12 04:48:15;;;;;;;3.30;0.90;;;8.90;99.90;;;;;;4993273;28;20069;-77
2023/01/12 04:50:43;;;;;;;7.10;1.35;;;8.90;99.90;;;;;;4992548;28;20137;-77
2023/01/12 04:53:11;;;;;;;2.05;0.95;;;8.90;99.90;;;;;;4993142;28;20447;-78
2023/01/12 04:55:40;;;;;;;14.68;2.42;;;8.90;99.90;;;;;;5007347;28;20745;-78
2023/01/12 04:58:06;;;;;;;4.45;0.70;;;8.80;99.90;;;;;;4991655;28;20049;-78
2023/01/12 05:00:32;;;;;;;6.40;1.10;;;8.90;99.90;;;;;;5007427;28;20050;-78
2023/01/12 05:03:02;;;;;;;1.77;0.73;;;8.90;99.90;;;;;;5007953;28;20030;-77
2023/01/12 05:05:30;;;;;;;4.60;0.35;;;8.90;99.90;;;;;;4992194;28;20402;-77
2023/01/12 05:10:52;;;;;;;2.25;0.82;;;9.00;99.90;;;;;;5004979;28;20042;-78
2023/01/12 05:13:18;;;;;;;2.25;1.38;;;9.00;99.90;;;;;;4973415;28;20034;-78
2023/01/12 05:15:44;;;;;;;6.28;1.55;;;8.90;99.90;;;;;;4985255;28;20105;-78
2023/01/12 05:18:09;;;;;;;7.25;1.27;;;8.90;99.90;;;;;;4991870;28;20030;-79
2023/01/12 05:20:35;;;;;;;2.42;0.60;;;9.00;99.90;;;;;;4988821;28;20038;-79
2023/01/12 05:23:01;;;;;;;7.40;0.95;;;8.90;99.90;;;;;;4987887;28;20031;-80
2023/01/12 05:25:28;;;;;;;1.45;0.63;;;9.00;99.90;;;;;;4984423;28;20038;-79
2023/01/12 05:27:56;;;;;;;4.68;1.08;;;9.00;99.90;;;;;;4992077;28;20030;-79
2023/01/12 05:30:23;;;;;;;6.75;1.98;;;8.90;99.90;;;;;;4983842;28;20521;-78
2023/01/12 05:32:54;;;;;;;2.97;1.00;;;9.00;99.90;;;;;;5007402;28;20034;-78
2023/01/12 05:35:23;;;;;;;6.80;0.93;;;9.00;99.90;;;;;;5007012;28;20030;-79
2023/01/12 05:37:55;;;;;;;2.53;0.82;;;9.00;99.90;;;;;;4992128;28;20031;-79
2023/01/12 05:40:23;;;;;;;3.83;0.30;;;8.90;99.90;;;;;;5006748;28;20117;-79
2023/01/12 05:45:35;;;;;;;3.13;0.68;;;8.90;99.90;;;;;;4991632;28;20038;-80
2023/01/12 05:48:01;;;;;;;6.32;1.23;;;8.90;99.90;;;;;;5007005;28;20093;-78
2023/01/12 05:50:27;;;;;;;4.13;1.27;;;9.00;99.90;;;;;;4991540;28;20482;-80
2023/01/12 05:52:53;;;;;;;0.95;0.45;;;9.00;99.90;;;;;;4989321;28;20399;-77
2023/01/12 05:55:19;;;;;;;1.20;0.47;;;8.90;99.90;;;;;;4988916;28;20030;-77
2023/01/12 05:57:45;;;;;;;5.85;0.85;;;8.90;99.90;;;;;;4991943;28;20447;-78
2023/01/12 06:00:11;;;;;;;4.43;0.77;;;8.90;99.90;;;;;;4991372;28;20537;-77
2023/01/12 06:02:37;;;;;;;3.75;0.70;;;8.90;99.90;;;;;;4999161;28;20595;-78
2023/01/12 06:05:07;;;;;;;9.57;0.85;;;8.90;99.90;;;;;;4966458;28;20039;-77
2023/01/12 06:07:33;;;;;;;10.45;0.70;;;8.90;99.90;;;;;;4991894;28;20069;-78
2023/01/12 06:09:58;;;;;;;9.10;0.75;;;9.00;99.90;;;;;;4991383;28;20030;-77
2023/01/12 06:15:09;;;;;;;5.38;1.02;;;9.00;99.90;;;;;;5004036;28;20032;-77
2023/01/12 06:17:34;;;;;;;0.30;0.28;;;9.00;99.90;;;;;;4991576;28;20030;-77
2023/01/12 06:20:00;;;;;;;14.52;1.50;;;9.00;99.90;;;;;;5006555;28;20498;-74
2023/01/12 06:22:26;;;;;;;3.67;1.00;;;9.00;99.90;;;;;;5004725;28;20556;-74
2023/01/12 06:24:53;;;;;;;5.38;0.80;;;8.90;99.90;;;;;;4991369;28;20037;-74
2023/01/12 06:27:19;;;;;;;4.40;0.45;;;9.00;99.90;;;;;;5001627;28;20395;-74
2023/01/12 06:29:45;;;;;;;2.58;1.17;;;9.00;99.90;;;;;;4990901;28;20026;-74
2023/01/12 06:32:10;;;;;;;1.60;0.65;;;9.00;99.90;;;;;;4990367;28;20047;-73
2023/01/12 06:34:37;;;;;;;3.53;1.48;;;9.00;99.90;;;;;;4990551;28;20034;-72
2023/01/12 06:37:03;;;;;;;1.13;0.60;;;9.10;99.90;;;;;;4990190;28;20066;-73
2023/01/12 06:39:29;;;;;;;6.72;0.75;;;9.10;99.90;;;;;;4990964;28;20109;-72
2023/01/12 06:44:40;;;;;;;8.77;1.00;;;9.00;99.90;;;;;;4990840;28;20371;-76
2023/01/12 06:47:05;;;;;;;9.18;0.73;;;9.10;99.90;;;;;;4989710;28;20038;-72
2023/01/12 06:49:31;;;;;;;5.70;1.13;;;9.10;99.90;;;;;;4975115;28;20567;-73
2023/01/12 06:51:57;;;;;;;7.40;0.70;;;9.00;99.90;;;;;;4983608;28;20072;-74
2023/01/12 06:54:22;;;;;;;20.83;0.75;;;9.00;99.90;;;;;;4990232;28;20023;-72
2023/01/12 06:56:48;;;;;;;7.45;0.52;;;9.00;99.90;;;;;;5006632;28;20037;-73
2023/01/12 06:59:14;;;;;;;7.13;1.15;;;9.00;99.90;;;;;;5004733;28;20047;-73
2023/01/12 07:01:40;;;;;;;5.30;0.57;;;9.10;99.90;;;;;;4989752;28;20169;-73
2023/01/12 07:04:07;;;;;;;9.57;1.23;;;9.00;99.90;;;;;;4990433;28;20034;-73
2023/01/12 07:06:33;;;;;;;4.55;1.15;;;9.00;99.90;;;;;;4991594;28;20049;-74
2023/01/12 07:08:59;;;;;;;1.33;0.47;;;9.00;99.90;;;;;;4990669;28;20029;-76
2023/01/12 07:11:25;;;;;;;8.90;1.20;;;9.10;99.90;;;;;;4984397;28;20038;-73
2023/01/12 07:13:51;;;;;;;6.82;1.00;;;9.10;99.90;;;;;;4990432;28;20038;-70
2023/01/12 07:16:16;;;;;;;4.65;0.90;;;9.00;99.90;;;;;;4989788;28;20479;-71
2023/01/12 07:18:42;;;;;;;4.20;0.95;;;9.00;99.90;;;;;;4990549;28;20042;-72
2023/01/12 07:21:12;;;;;;;5.65;1.45;;;9.10;99.90;;;;;;4989626;28;20113;-73
2023/01/12 07:23:40;;;;;;;4.63;1.05;;;9.10;99.90;;;;;;4989177;28;20065;-73
2023/01/12 07:26:07;;;;;;;3.92;0.70;;;9.10;99.90;;;;;;5004614;28;21088;-79
2023/01/12 07:28:33;;;;;;;8.57;1.00;;;9.10;99.90;;;;;;4990146;28;20386;-82
2023/01/12 07:33:36;;;;;;;3.50;0.88;;;9.10;99.90;;;;;;4984476;28;20113;-80
2023/01/12 07:36:03;;;;;;;2.70;0.73;;;9.10;99.90;;;;;;4977849;28;20044;-79
2023/01/12 07:38:30;;;;;;;4.57;0.57;;;9.10;99.90;;;;;;4974540;28;20023;-80
2023/01/12 07:41:03;;;;;;;3.65;1.25;;;9.20;99.90;;;;;;4975748;28;20038;-73
2023/01/12 07:43:31;;;;;;;9.15;0.98;;;9.20;99.90;;;;;;4974250;28;20574;-74
2023/01/12 07:45:58;;;;;;;5.35;1.02;;;9.10;99.90;;;;;;4973103;28;20043;-74
2023/01/12 07:48:25;;;;;;;0.90;0.60;;;9.10;99.90;;;;;;4933310;28;20487;-75
2023/01/12 07:50:51;;;;;;;10.65;2.20;;;9.20;99.90;;;;;;4965597;28;20057;-74
2023/01/12 07:53:18;;;;;;;19.42;3.17;;;9.20;99.90;;;;;;4973705;28;20067;-73
2023/01/12 07:55:44;;;;;;;4.57;1.08;;;9.20;99.90;;;;;;4965118;28;20399;-73
2023/01/12 07:58:10;;;;;;;0.63;0.40;;;9.20;99.90;;;;;;4972739;28;20035;-73
2023/01/12 08:00:36;;;;;;;3.47;1.00;;;9.20;99.90;;;;;;4965980;28;20038;-70
2023/01/12 08:03:12;;;;;;;13.40;4.05;;;9.10;99.90;;;;;;4971970;28;20062;-73
2023/01/12 08:05:38;;;;;;;3.05;0.50;;;9.00;99.90;;;;;;4969641;28;20086;-73
2023/01/12 08:08:06;;;;;;;8.05;1.00;;;9.00;99.90;;;;;;4953962;29;20035;-73
2023/01/12 08:10:31;;;;;;;9.98;1.17;;;9.00;99.90;;;;;;4961355;28;20118;-72
2023/01/12 08:12:57;;;;;;;0.32;0.10;;;9.00;99.90;;;;;;4955129;28;20113;-73
2023/01/12 08:15:25;;;;;;;8.00;0.98;;;9.00;99.90;;;;;;4954920;28;20031;-73
2023/01/12 08:18:01;;;;;;;6.28;0.55;;;9.00;99.90;;;;;;4953027;29;20034;-72
2023/01/12 08:20:35;;;;;;;8.95;1.35;;;9.00;99.90;;;;;;4953505;29;20476;-73
2023/01/12 08:23:29;;;;;;;5.30;1.33;;;9.00;99.90;;;;;;4955845;28;20027;-74
2023/01/12 08:26:05;;;;;;;1.00;0.80;;;9.00;99.90;;;;;;4959003;28;20129;-73
2023/01/12 08:28:42;;;;;;;2.83;0.63;;;9.00;99.90;;;;;;4956282;28;20090;-73
2023/01/12 08:31:12;;;;;;;7.85;0.85;;;9.00;99.90;;;;;;4973544;28;20463;-72
2023/01/12 08:33:38;;;;;;;3.67;0.55;;;9.00;99.90;;;;;;4972400;28;20038;-71
2023/01/12 08:36:07;;;;;;;5.57;1.25;;;9.00;99.90;;;;;;4965610;28;20442;-74
2023/01/12 08:38:33;;;;;;;1.00;0.63;;;9.00;99.90;;;;;;4956103;28;20035;-74
2023/01/12 08:44:01;;;;;;;4.13;0.40;;;9.00;99.90;;;;;;4971008;28;20038;-78
2023/01/12 08:46:34;;;;;;;2.40;0.88;;;9.00;99.90;;;;;;4953381;28;20074;-76
2023/01/12 08:49:07;;;;;;;3.78;0.85;;;9.00;99.90;;;;;;4969641;28;20034;-76
2023/01/12 08:51:33;;;;;;;14.25;1.98;;;9.20;99.90;;;;;;4966268;28;20039;-73
2023/01/12 08:54:01;;;;;;;5.07;1.23;;;9.10;99.90;;;;;;4964434;28;20070;-76
2023/01/12 08:56:27;;;;;;;4.18;1.05;;;9.00;99.90;;;;;;4959571;28;20547;-75
2023/01/12 08:58:52;;;;;;;4.72;0.60;;;9.10;99.90;;;;;;4965520;28;20134;-77
2023/01/12 09:01:19;;;;;;;6.70;0.75;;;9.00;99.90;;;;;;4965663;28;20034;-77
2023/01/12 09:03:46;;;;;;;30.77;4.45;;;9.10;99.90;;;;;;4955247;28;20483;-75
2023/01/12 09:06:22;;;;;;;5.38;1.35;;;9.00;99.90;;;;;;4965435;28;20053;-75
2023/01/12 09:08:54;;;;;;;3.08;1.35;;;9.00;99.90;;;;;;4971453;28;20390;-75
2023/01/12 09:11:19;;;;;;;5.20;2.15;;;9.00;99.90;;;;;;4966098;28;20035;-76
2023/01/12 09:13:45;;;;;;;9.90;0.47;;;9.10;99.90;;;;;;4959863;28;20043;-72
2023/01/12 09:16:15;;;;;;;0.80;0.60;;;9.10;99.90;;;;;;4960376;28;20059;-74
2023/01/12 09:18:41;;;;;;;10.55;0.63;;;9.20;99.90;;;;;;4936169;29;20039;-77
2023/01/12 09:21:11;;;;;;;1.58;0.88;;;9.20;99.90;;;;;;4953550;29;20035;-77
2023/01/12 09:23:38;;;;;;;11.90;2.55;;;9.20;99.90;;;;;;4959015;28;20031;-74
2023/01/12 09:26:13;;;;;;;11.55;1.50;;;9.30;99.90;;;;;;4974172;28;20038;-72
2023/01/12 09:28:39;;;;;;;5.25;0.47;;;9.30;99.90;;;;;;4970472;28;20027;-72
2023/01/12 09:31:09;;;;;;;4.35;1.58;;;9.30;99.90;;;;;;4970259;28;20035;-72
2023/01/12 09:33:37;;;;;;;4.72;0.63;;;9.30;99.90;;;;;;4964205;28;20043;-73
2023/01/12 09:36:06;;;;;;;8.60;1.95;;;9.40;99.90;;;;;;4972726;28;20051;-73
2023/01/12 09:38:36;;;;;;;6.70;2.15;;;9.40;99.90;;;;;;4963449;28;20407;-75
2023/01/12 09:46:57;;;;;;;1.40;0.65;;;9.40;99.90;;;;;;4955664;28;20490;-74
2023/01/12 09:47:54;;;;;;;3.95;1.40;;;9.40;99.90;;;;;;4971628;28;20482;-75
2023/01/12 09:50:27;;;;;;;4.30;0.60;;;9.50;99.90;;;;;;4966479;28;20133;-74
2023/01/12 09:53:23;;;;;;;13.25;1.10;;;9.50;99.90;;;;;;4954688;28;20058;-78
2023/01/12 09:56:07;;;;;;;17.27;1.50;;;9.50;99.90;;;;;;4970757;28;20073;-76
2023/01/12 09:58:42;;;;;;;1.92;0.98;;;9.60;99.90;;;;;;4969671;28;20097;-76
2023/01/12 10:01:14;;;;;;;4.43;0.82;;;9.80;99.90;;;;;;4966633;28;20038;-76
2023/01/12 10:03:41;;;;;;;4.65;0.63;;;9.80;99.90;;;;;;4963693;28;20035;-76
2023/01/12 10:06:14;;;;;;;6.78;1.73;;;9.80;99.90;;;;;;4967297;28;20066;-74
2023/01/12 10:08:59;;;;;;;8.00;1.35;;;9.80;99.90;;;;;;4967136;28;20043;-74
2023/01/12 10:12:02;;;;;;;2.63;0.80;;;9.80;99.90;;;;;;4968328;28;20041;-74
2023/01/12 10:14:51;;;;;;;2.28;0.43;;;9.80;99.90;;;;;;4971315;28;20043;-72
2023/01/12 10:17:53;;;;;;;0.60;0.50;;;9.80;99.90;;;;;;4963508;28;20042;-73
2023/01/12 10:20:35;;;;;;;0.82;0.50;;;9.70;99.90;;;;;;4948945;28;20475;-71
2023/01/12 10:23:06;;;;;;;6.57;0.65;;;9.70;99.90;;;;;;4967144;28;20062;-74
2023/01/12 10:25:43;;;;;;;3.92;1.20;;;9.70;99.90;;;;;;4953851;28;20094;-76
2023/01/12 10:28:29;;;;;;;17.92;1.10;;;9.70;99.90;;;;;;4952352;28;20033;-74
2023/01/12 10:30:56;;;;;;;4.80;0.90;;;9.80;99.90;;;;;;4962880;28;20394;-74
2023/01/12 10:33:32;;;;;;;8.00;0.52;;;9.80;99.90;;;;;;4953375;28;20034;-74
2023/01/12 10:36:09;;;;;;;3.88;1.17;;;9.80;99.90;;;;;;4969796;28;20030;-73
2023/01/12 10:38:51;;;;;;;4.45;1.25;;;9.80;99.90;;;;;;4953772;28;20047;-72
2023/01/12 10:41:19;;;;;;;1.73;0.90;;;9.90;99.90;;;;;;4971291;28;20035;-74
2023/01/12 10:43:59;;;;;;;2.90;0.60;;;9.80;99.90;;;;;;4954014;28;20146;-74
2023/01/12 10:46:28;;;;;;;4.57;0.77;;;9.90;99.90;;;;;;4970392;28;20031;-74
2023/01/12 10:49:21;;;;;;;8.35;1.23;;;9.90;99.90;;;;;;4962110;28;20038;-74
2023/01/12 10:51:54;;;;;;;4.60;0.80;;;9.90;99.90;;;;;;4969113;28;20041;-74
2023/01/12 10:54:27;;;;;;;5.63;1.20;;;10.00;99.90;;;;;;4953873;28;20035;-74
2023/01/12 10:57:01;;;;;;;13.60;0.90;;;10.00;99.90;;;;;;4969220;28;20117;-74
2023/01/12 10:59:38;;;;;;;2.80;0.70;;;10.00;99.90;;;;;;4964853;28;20023;-73
2023/01/12 11:02:04;;;;;;;10.23;0.38;;;10.00;99.90;;;;;;4968821;28;20031;-73
2023/01/12 11:04:46;;;;;;;13.52;0.70;;;10.00;99.90;;;;;;4962059;28;20043;-73
2023/01/12 11:07:21;;;;;;;1.65;0.38;;;10.00;99.90;;;;;;4960119;28;20027;-73
2023/01/12 11:09:47;;;;;;;2.85;0.25;;;10.10;99.90;;;;;;4965918;28;20037;-73
2023/01/12 11:12:35;;;;;;;0.55;0.20;;;10.10;99.90;;;;;;4964607;28;20026;-73
2023/01/12 11:15:13;;;;;;;7.03;0.35;;;10.20;99.90;;;;;;4956803;28;20133;-73
2023/01/12 11:18:04;;;;;;;2.10;0.50;;;10.20;99.90;;;;;;4967790;28;20521;-73
2023/01/12 11:20:56;;;;;;;1.70;0.40;;;10.30;99.90;;;;;;4968212;28;20154;-74
2023/01/12 11:23:37;;;;;;;2.78;0.55;;;10.40;99.90;;;;;;4943193;28;20078;-74
2023/01/12 11:26:16;;;;;;;2.33;1.07;;;10.40;99.90;;;;;;4956431;28;20060;-74
2023/01/12 11:28:48;;;;;;;0.82;0.40;;;10.40;99.90;;;;;;4942009;28;20030;-74
2023/01/12 11:31:20;;;;;;;3.53;0.40;;;10.50;99.90;;;;;;4970097;28;20035;-74
2023/01/12 11:34:01;;;;;;;0.25;0.10;;;10.50;99.90;;;;;;4941923;28;20031;-73
2023/01/12 11:36:37;;;;;;;0.20;0.13;;;10.50;99.90;;;;;;4968062;28;20038;-70
2023/01/12 11:39:18;;;;;;;4.68;1.38;;;10.50;99.90;;;;;;4960100;28;20395;-70
2023/01/12 11:45:16;;;;;;;1.65;0.38;;;10.50;99.90;;;;;;4959370;28;20050;-71
2023/01/12 11:47:57;;;;;;;0.47;0.30;;;10.60;99.90;;;;;;4957305;28;20023;-70
2023/01/12 11:50:29;;;;;;;1.75;0.98;;;10.70;99.90;;;;;;4957010;28;20118;-69
2023/01/12 11:52:56;;;;;;;3.55;0.40;;;10.80;99.90;;;;;;4957377;28;20034;-69
2023/01/12 11:56:05;;;;;;;3.72;0.22;;;10.80;99.90;;;;;;4969296;28;20042;-70
2023/01/12 11:58:52;;;;;;;0.17;0.08;;;10.80;99.90;;;;;;4959978;28;20031;-71
2023/01/12 12:01:35;;;;;;;2.20;0.60;;;10.80;99.90;;;;;;4946361;28;20067;-70
2023/01/12 12:05:05;;;;;;;0.43;0.22;;;10.90;99.90;;;;;;4960693;28;20027;-70
2023/01/12 12:07:53;;;;;;;3.83;0.45;;;10.90;99.90;;;;;;4973181;28;20041;-67
2023/01/12 12:10:45;;;;;;;0.20;0.10;;;10.80;99.90;;;;;;4954091;28;20054;-68
2023/01/12 12:13:33;;;;;;;1.20;0.43;;;10.80;99.90;;;;;;4958536;28;20097;-68
2023/01/12 12:16:33;;;;;;;1.15;0.45;;;10.90;99.90;;;;;;4962215;28;20035;-68
2023/01/12 12:19:29;;;;;;;3.53;0.57;;;10.80;99.90;;;;;;4973159;28;20038;-68
2023/01/12 12:22:45;;;;;;;0.22;0.08;;;10.70;99.90;;;;;;4971506;28;20046;-69
2023/01/12 12:26:09;;;;;;;0.17;0.17;;;10.70;99.90;;;;;;4955263;28;20030;-68
2023/01/12 12:28:57;;;;;;;1.50;0.63;;;10.60;99.90;;;;;;4972075;28;20117;-68
2023/01/12 12:32:07;;;;;;;0.13;0.13;;;10.70;99.90;;;;;;4961949;28;20035;-68
2023/01/12 12:35:11;;;;;;;0.73;0.32;;;10.60;99.90;;;;;;4966517;28;20038;-69
2023/01/12 12:37:58;;;;;;;8.35;1.65;;;10.70;99.90;;;;;;4972747;28;20391;-70
2023/01/12 12:46:47;;;;;;;3.33;1.38;;;10.40;99.90;;;;;;4954663;28;20043;-70
2023/01/12 12:49:28;;;;;;;2.40;0.25;;;10.40;99.90;;;;;;4963632;28;20035;-71
2023/01/12 12:51:57;;;;;;;0.20;0.10;;;10.40;99.90;;;;;;4956092;28;20109;-71
2023/01/12 12:54:25;;;;;;;1.90;0.35;;;10.40;99.90;;;;;;4972389;28;20483;-72
2023/01/12 12:56:51;;;;;;;2.08;0.88;;;10.30;99.90;;;;;;4955682;28;20117;-70
2023/01/12 12:59:32;;;;;;;7.47;0.52;;;10.30;99.90;;;;;;4955248;28;20125;-73
2023/01/12 13:02:00;;;;;;;6.40;0.43;;;10.30;99.90;;;;;;4964547;28;20042;-72
2023/01/12 13:04:41;;;;;;;1.63;0.45;;;10.30;99.90;;;;;;4971334;28;20093;-72
2023/01/12 13:07:15;;;;;;;9.77;0.85;;;10.30;99.90;;;;;;4964301;28;20042;-71
2023/01/12 13:09:42;;;;;;;10.13;3.17;;;10.20;99.90;;;;;;4970197;28;20042;-72
2023/01/12 13:12:16;;;;;;;3.70;0.60;;;10.30;99.90;;;;;;4960109;28;20047;-72
2023/01/12 13:14:42;;;;;;;7.05;0.73;;;10.30;99.90;;;;;;4960966;28;20038;-71
2023/01/12 13:17:20;;;;;;;29.17;1.42;;;10.20;99.90;;;;;;4963908;28;20032;-71
2023/01/12 13:20:01;;;;;;;9.93;0.90;;;10.20;99.90;;;;;;4972377;28;20035;-72
2023/01/12 13:22:49;;;;;;;3.92;0.68;;;10.20;99.90;;;;;;4961250;28;20031;-72
2023/01/12 13:25:15;;;;;;;14.85;1.02;;;10.20;99.90;;;;;;4954535;28;20348;-72
2023/01/12 13:28:00;;;;;;;1.48;0.75;;;10.10;99.90;;;;;;4965701;28;20031;-72
2023/01/12 13:30:25;;;;;;;3.20;0.50;;;10.20;99.90;;;;;;4965620;28;20038;-72
2023/01/12 13:32:57;;;;;;;2.15;0.50;;;10.30;99.90;;;;;;4977869;23;20057;-72
2023/01/12 13:35:32;;;;;;;23.77;3.67;;;10.30;99.90;;;;;;4972128;28;20035;-72
2023/01/12 13:38:42;;;;;;;0.30;0.20;;;10.30;99.90;;;;;;4970310;28;20026;-71
2023/01/12 13:41:16;;;;;;;10.85;0.80;;;10.30;99.90;;;;;;4971499;28;20038;-71
2023/01/12 13:43:55;;;;;;;1.23;0.85;;;10.30;99.90;;;;;;4952361;29;20573;-71
2023/01/12 13:46:44;;;;;;;0.45;0.28;;;10.30;99.90;;;;;;4934149;29;20070;-70
2023/01/12 13:49:29;;;;;;;0.52;0.30;;;10.30;99.90;;;;;;4965265;28;20129;-70
2023/01/12 13:52:18;;;;;;;3.40;0.15;;;10.40;99.90;;;;;;4967241;28;20090;-70
2023/01/12 13:54:49;;;;;;;5.82;0.73;;;10.40;99.90;;;;;;4952672;28;20105;-71
2023/01/12 13:57:22;;;;;;;3.20;0.30;;;10.30;99.90;;;;;;4951845;28;20035;-71
2023/01/12 14:00:07;;;;;;;4.25;0.50;;;10.40;99.90;;;;;;4952958;28;20467;-70
2023/01/12 14:02:35;;;;;;;2.78;0.88;;;10.30;99.90;;;;;;4951830;28;20039;-71
2023/01/12 14:05:45;;;;;;;7.07;1.17;;;10.40;99.90;;;;;;4967225;28;20039;-71
2023/01/12 14:08:46;;;;;;;1.58;0.77;;;10.30;99.90;;;;;;4951147;28;20039;-70
2023/01/12 14:11:54;;;;;;;9.80;0.90;;;10.40;99.90;;;;;;4952472;28;20119;-70
2023/01/12 14:17:48;;;;;;;1.13;0.50;;;10.40;99.90;;;;;;4951445;29;20392;-71